»·PEaware :: FJS1399 KDEN-KASE

FJS1399 :: KDEN-KASE

FLIGHT INFORMATION

Flight Status: Arrived
Operator: Unknown
More flights by this operator :: More flights under this callsign
Pilot: David C. (16084)
Aircraft: ECLIPSE 500
(EA50)
More flights by this aircraft type
Origin: KDEN Denver Intl
United States
Destination: KASE Aspen-Pitkin Co/Sardy
United States
More flights between these airports :: More routes between these airports
Route: CONNR5 DBL
File this flight plan on PilotEdge
Remarks:
Altitude:
(Current/Filed)
22,000ft
Speed:
(Current/Filed)
345kts
Departed: 16-Jan-20 04:46 PM
Arrived: 16-Jan-20 05:18 PM
Distance/Time
Traveled:
109nm/0:32
Distance/Time
To Go:
Arrived

Flight Plot

Page will automatically refresh every two minutes.

Flight plan parsing failed; only flown route is shown


Map Options




Map Legend


Flown Route
Filed Route
Departure Airport
Arrival Airport
Navaid (VOR, NDB)
Fix

Horizontal Profiles

Position Reports

Time Latitude Longitude Heading Altitude Ground
Speed
16-Jan-20 16:08 39.838717 -104.665154 180 5322ft 0kts
16-Jan-20 16:09 39.838717 -104.665154 180 5322ft 0kts
16-Jan-20 16:10 39.838717 -104.665154 180 5322ft 0kts
16-Jan-20 16:11 39.838717 -104.665154 180 5322ft 0kts
16-Jan-20 16:12 39.838717 -104.665154 180 5322ft 0kts
16-Jan-20 16:13 39.838717 -104.665154 180 5322ft 0kts
16-Jan-20 16:14 39.838717 -104.665154 180 5322ft 0kts
16-Jan-20 16:15 39.838717 -104.665154 180 5322ft 0kts
16-Jan-20 16:16 39.838717 -104.665154 180 5322ft 0kts
16-Jan-20 16:17 39.838717 -104.665154 180 5322ft 0kts
16-Jan-20 16:18 39.838717 -104.665154 180 5322ft 0kts
16-Jan-20 16:19 39.838717 -104.665154 180 5322ft 0kts
16-Jan-20 16:20 39.838717 -104.665154 180 5322ft 0kts
16-Jan-20 16:21 39.838717 -104.665154 180 5322ft 0kts
16-Jan-20 16:22 39.838717 -104.665154 180 5322ft 0kts
16-Jan-20 16:23 39.838717 -104.665154 180 5322ft 0kts
16-Jan-20 16:24 39.838717 -104.665154 180 5322ft 0kts
16-Jan-20 16:25 39.838717 -104.665154 180 5322ft 0kts
16-Jan-20 16:26 39.838717 -104.665154 180 5322ft 0kts
16-Jan-20 16:27 39.838717 -104.665154 180 5322ft 0kts
16-Jan-20 16:28 39.838717 -104.665154 180 5322ft 0kts
16-Jan-20 16:29 39.838717 -104.665154 180 5322ft 0kts
16-Jan-20 16:30 39.838717 -104.665154 180 5322ft 0kts
16-Jan-20 16:31 39.838717 -104.665154 180 5322ft 0kts
16-Jan-20 16:32 39.838717 -104.665154 180 5322ft 0kts
16-Jan-20 16:33 39.838717 -104.665154 180 5322ft 0kts
16-Jan-20 16:34 39.838717 -104.665154 180 5322ft 0kts
16-Jan-20 16:35 39.838717 -104.665154 180 5322ft 0kts
16-Jan-20 16:36 39.838717 -104.665154 180 5322ft 0kts
16-Jan-20 16:37 39.838571 -104.664735 51 5322ft 8kts
16-Jan-20 16:38 39.839037 -104.664366 23 5322ft 0kts
16-Jan-20 16:39 39.839037 -104.664366 23 5322ft 0kts
16-Jan-20 16:40 39.839347 -104.664191 22 5322ft 14kts
16-Jan-20 16:41 39.835398 -104.662652 180 5322ft 27kts
16-Jan-20 16:42 39.828421 -104.661842 90 5322ft 7kts
16-Jan-20 16:43 39.828421 -104.661809 90 5322ft 0kts
16-Jan-20 16:44 39.829447 -104.660576 5 5322ft 18kts
16-Jan-20 16:45 39.859558 -104.659698 1 5831ft 181kts
16-Jan-20 16:46 39.921360 -104.672566 314 7087ft 273kts
16-Jan-20 16:47 39.913824 -104.769263 242 8993ft 295kts
16-Jan-20 16:48 39.876397 -104.864129 241 11499ft 294kts
16-Jan-20 16:49 39.848719 -104.962703 251 14004ft 289kts
16-Jan-20 16:50 39.827516 -105.060829 250 16513ft 276kts
16-Jan-20 16:51 39.807443 -105.153495 249 19023ft 257kts
16-Jan-20 16:52 39.789066 -105.238733 247 21531ft 233kts
16-Jan-20 16:53 39.770585 -105.325142 248 22133ft 276kts
16-Jan-20 16:54 39.748573 -105.429122 249 22137ft 317kts
16-Jan-20 16:55 39.723831 -105.543898 249 22147ft 339kts
16-Jan-20 16:56 39.700030 -105.661177 250 22156ft 341kts
16-Jan-20 16:57 39.686243 -105.785429 255 22158ft 345kts
16-Jan-20 16:58 39.672300 -105.908665 256 22177ft 347kts
16-Jan-20 16:59 39.658282 -106.033358 256 22218ft 350kts
16-Jan-20 17:00 39.644116 -106.158442 256 22237ft 351kts
16-Jan-20 17:01 39.629764 -106.283919 256 22236ft 352kts
16-Jan-20 17:02 39.599686 -106.397576 243 20511ft 328kts
16-Jan-20 17:03 39.566566 -106.500957 243 20196ft 292kts
16-Jan-20 17:04 39.538219 -106.589561 245 18336ft 249kts
16-Jan-20 17:05 39.529819 -106.676940 258 16331ft 244kts
16-Jan-20 17:06 39.520376 -106.768021 258 14341ft 264kts
16-Jan-20 17:07 39.509048 -106.861677 258 13053ft 253kts
16-Jan-20 17:08 39.498625 -106.955284 258 13047ft 263kts
16-Jan-20 17:09 39.489278 -107.039613 237 13036ft 201kts
16-Jan-20 17:10 39.447051 -107.020584 139 12536ft 202kts
16-Jan-20 17:11 39.407744 -106.969316 141 12516ft 195kts
16-Jan-20 17:12 39.365301 -106.935903 157 11597ft 172kts
16-Jan-20 17:13 39.322180 -106.918969 162 10030ft 142kts
16-Jan-20 17:14 39.288091 -106.899137 156 8625ft 131kts
16-Jan-20 17:15 39.254937 -106.884027 160 8010ft 120kts
16-Jan-20 17:16 39.225830 -106.870093 159 7715ft 87kts
16-Jan-20 17:17 39.220935 -106.866590 338 7760ft 17kts
16-Jan-20 17:18 39.222835 -106.866823 69 7742ft 0kts
16-Jan-20 17:19 39.222835 -106.866823 69 7742ft 0kts

Navigation Log

Ident Type
Flight plan parsing failed, navigation log unavailable